Aviation Digital Data Service (ADDS)

Output produced by METARs form (1305 UTC 21 April 2014)
found at http://aviationweather.gov/adds/metars/
 
KBPT 211124Z 2112/2212 00000KT 1/4SM FG VV001 
     FM211400 18010KT P6SM BKN080 
     TEMPO 2114/2115 4SM BR 
     FM220000 18006KT P6SM SCT050 
     FM220700 00000KT 4SM BR FEW015